sensor_id;sensor_type;location;lat;lon;timestamp;P1;durP1;ratioP1;P2;durP2;ratioP2
5085;SDS011;4715;51.660;7.082;2022-12-18T00:01:15;35.73;;;18.23;;
5085;SDS011;4715;51.660;7.082;2022-12-18T00:03:38;35.60;;;18.37;;
5085;SDS011;4715;51.660;7.082;2022-12-18T00:06:02;44.27;;;19.90;;
5085;SDS011;4715;51.660;7.082;2022-12-18T00:08:24;40.40;;;19.80;;
5085;SDS011;4715;51.660;7.082;2022-12-18T00:10:45;39.30;;;19.80;;
5085;SDS011;4715;51.660;7.082;2022-12-18T00:13:08;37.97;;;17.87;;
5085;SDS011;4715;51.660;7.082;2022-12-18T00:15:30;36.57;;;17.40;;
5085;SDS011;4715;51.660;7.082;2022-12-18T00:17:54;50.17;;;22.30;;
5085;SDS011;4715;51.660;7.082;2022-12-18T00:20:16;38.67;;;21.13;;
5085;SDS011;4715;51.660;7.082;2022-12-18T00:22:43;58.70;;;22.90;;
5085;SDS011;4715;51.660;7.082;2022-12-18T00:25:05;43.97;;;21.70;;
5085;SDS011;4715;51.660;7.082;2022-12-18T00:27:27;33.43;;;18.43;;
5085;SDS011;4715;51.660;7.082;2022-12-18T00:29:49;47.00;;;19.27;;
5085;SDS011;4715;51.660;7.082;2022-12-18T00:32:10;35.70;;;17.20;;
5085;SDS011;4715;51.660;7.082;2022-12-18T00:34:32;37.10;;;19.17;;
5085;SDS011;4715;51.660;7.082;2022-12-18T00:36:55;39.80;;;19.30;;
5085;SDS011;4715;51.660;7.082;2022-12-18T00:39:18;34.07;;;17.60;;
5085;SDS011;4715;51.660;7.082;2022-12-18T00:41:40;37.67;;;18.17;;
5085;SDS011;4715;51.660;7.082;2022-12-18T00:44:20;41.90;;;19.03;;
5085;SDS011;4715;51.660;7.082;2022-12-18T00:46:42;43.20;;;19.77;;
5085;SDS011;4715;51.660;7.082;2022-12-18T00:49:04;39.60;;;18.57;;
5085;SDS011;4715;51.660;7.082;2022-12-18T00:51:26;32.93;;;17.30;;
5085;SDS011;4715;51.660;7.082;2022-12-18T00:53:48;39.53;;;19.47;;
5085;SDS011;4715;51.660;7.082;2022-12-18T00:56:12;38.73;;;18.87;;
5085;SDS011;4715;51.660;7.082;2022-12-18T00:58:35;39.07;;;20.20;;
5085;SDS011;4715;51.660;7.082;2022-12-18T01:00:56;35.70;;;19.27;;
5085;SDS011;4715;51.660;7.082;2022-12-18T01:03:18;37.47;;;18.97;;
5085;SDS011;4715;51.660;7.082;2022-12-18T01:05:40;42.73;;;21.67;;
5085;SDS011;4715;51.660;7.082;2022-12-18T01:08:02;40.70;;;20.67;;
5085;SDS011;4715;51.660;7.082;2022-12-18T01:10:25;35.70;;;18.60;;
5085;SDS011;4715;51.660;7.082;2022-12-18T01:12:48;39.30;;;19.10;;
5085;SDS011;4715;51.660;7.082;2022-12-18T01:15:11;35.90;;;18.43;;
5085;SDS011;4715;51.660;7.082;2022-12-18T01:17:34;39.37;;;17.70;;
5085;SDS011;4715;51.660;7.082;2022-12-18T01:19:58;30.10;;;16.73;;
5085;SDS011;4715;51.660;7.082;2022-12-18T01:22:20;32.10;;;16.80;;
5085;SDS011;4715;51.660;7.082;2022-12-18T01:24:42;22.10;;;13.97;;
5085;SDS011;4715;51.660;7.082;2022-12-18T01:27:04;28.83;;;15.43;;
5085;SDS011;4715;51.660;7.082;2022-12-18T01:29:27;26.27;;;14.40;;
5085;SDS011;4715;51.660;7.082;2022-12-18T01:31:49;21.27;;;12.20;;
5085;SDS011;4715;51.660;7.082;2022-12-18T01:34:11;31.00;;;14.70;;
5085;SDS011;4715;51.660;7.082;2022-12-18T01:36:33;28.10;;;15.50;;
5085;SDS011;4715;51.660;7.082;2022-12-18T01:38:58;27.27;;;14.40;;
5085;SDS011;4715;51.660;7.082;2022-12-18T01:41:21;32.87;;;16.10;;
5085;SDS011;4715;51.660;7.082;2022-12-18T01:43:45;22.37;;;13.73;;
5085;SDS011;4715;51.660;7.082;2022-12-18T01:46:11;32.43;;;13.97;;
5085;SDS011;4715;51.660;7.082;2022-12-18T01:48:33;29.53;;;14.83;;
5085;SDS011;4715;51.660;7.082;2022-12-18T01:50:55;28.67;;;14.57;;
5085;SDS011;4715;51.660;7.082;2022-12-18T01:53:17;28.23;;;15.90;;
5085;SDS011;4715;51.660;7.082;2022-12-18T01:55:43;30.87;;;14.83;;
5085;SDS011;4715;51.660;7.082;2022-12-18T01:58:07;23.83;;;13.80;;
5085;SDS011;4715;51.660;7.082;2022-12-18T02:00:30;27.53;;;14.83;;
5085;SDS011;4715;51.660;7.082;2022-12-18T02:02:54;26.23;;;15.83;;
5085;SDS011;4715;51.660;7.082;2022-12-18T02:05:17;28.30;;;14.23;;
5085;SDS011;4715;51.660;7.082;2022-12-18T02:07:42;32.87;;;16.27;;
5085;SDS011;4715;51.660;7.082;2022-12-18T02:10:15;25.37;;;14.33;;
5085;SDS011;4715;51.660;7.082;2022-12-18T02:12:42;40.60;;;16.27;;
5085;SDS011;4715;51.660;7.082;2022-12-18T02:15:13;37.07;;;14.13;;
5085;SDS011;4715;51.660;7.082;2022-12-18T02:17:38;26.07;;;13.50;;
5085;SDS011;4715;51.660;7.082;2022-12-18T02:20:08;20.83;;;12.37;;
5085;SDS011;4715;51.660;7.082;2022-12-18T02:22:36;24.93;;;13.30;;
5085;SDS011;4715;51.660;7.082;2022-12-18T02:25:15;27.77;;;13.37;;
5085;SDS011;4715;51.660;7.082;2022-12-18T02:27:49;28.67;;;14.33;;
5085;SDS011;4715;51.660;7.082;2022-12-18T02:30:12;21.13;;;11.60;;
5085;SDS011;4715;51.660;7.082;2022-12-18T02:32:37;22.13;;;12.77;;
5085;SDS011;4715;51.660;7.082;2022-12-18T02:35:02;29.73;;;16.23;;
5085;SDS011;4715;51.660;7.082;2022-12-18T02:37:27;27.07;;;13.73;;
5085;SDS011;4715;51.660;7.082;2022-12-18T02:39:51;30.70;;;15.80;;
5085;SDS011;4715;51.660;7.082;2022-12-18T02:42:16;26.70;;;14.80;;
5085;SDS011;4715;51.660;7.082;2022-12-18T02:44:44;28.07;;;14.90;;
5085;SDS011;4715;51.660;7.082;2022-12-18T02:47:08;36.80;;;17.43;;
5085;SDS011;4715;51.660;7.082;2022-12-18T02:49:34;34.37;;;16.00;;
5085;SDS011;4715;51.660;7.082;2022-12-18T02:52:07;31.67;;;15.93;;
5085;SDS011;4715;51.660;7.082;2022-12-18T02:54:38;27.07;;;15.10;;
5085;SDS011;4715;51.660;7.082;2022-12-18T02:57:12;38.90;;;18.27;;
5085;SDS011;4715;51.660;7.082;2022-12-18T02:59:39;32.87;;;16.60;;
5085;SDS011;4715;51.660;7.082;2022-12-18T03:02:10;27.77;;;16.40;;
5085;SDS011;4715;51.660;7.082;2022-12-18T03:04:43;27.53;;;15.77;;
5085;SDS011;4715;51.660;7.082;2022-12-18T03:07:09;28.17;;;15.60;;
5085;SDS011;4715;51.660;7.082;2022-12-18T03:09:37;24.87;;;13.83;;
5085;SDS011;4715;51.660;7.082;2022-12-18T03:12:04;28.67;;;15.13;;
5085;SDS011;4715;51.660;7.082;2022-12-18T03:14:46;33.13;;;14.10;;
5085;SDS011;4715;51.660;7.082;2022-12-18T03:17:13;30.33;;;14.73;;
5085;SDS011;4715;51.660;7.082;2022-12-18T03:19:38;31.13;;;16.23;;
5085;SDS011;4715;51.660;7.082;2022-12-18T03:22:02;32.70;;;15.33;;
5085;SDS011;4715;51.660;7.082;2022-12-18T03:24:27;32.00;;;15.33;;
5085;SDS011;4715;51.660;7.082;2022-12-18T03:26:53;32.40;;;16.37;;
5085;SDS011;4715;51.660;7.082;2022-12-18T03:29:18;31.87;;;15.53;;
5085;SDS011;4715;51.660;7.082;2022-12-18T03:31:47;23.93;;;13.70;;
5085;SDS011;4715;51.660;7.082;2022-12-18T03:34:14;24.83;;;14.50;;
5085;SDS011;4715;51.660;7.082;2022-12-18T03:36:40;29.97;;;13.67;;
5085;SDS011;4715;51.660;7.082;2022-12-18T03:39:02;29.83;;;15.20;;
5085;SDS011;4715;51.660;7.082;2022-12-18T03:41:26;24.03;;;13.13;;
5085;SDS011;4715;51.660;7.082;2022-12-18T03:43:54;25.60;;;13.20;;
5085;SDS011;4715;51.660;7.082;2022-12-18T03:46:24;23.97;;;12.60;;
5085;SDS011;4715;51.660;7.082;2022-12-18T03:48:51;21.97;;;11.23;;
5085;SDS011;4715;51.660;7.082;2022-12-18T03:51:17;22.90;;;12.30;;
5085;SDS011;4715;51.660;7.082;2022-12-18T03:53:45;24.63;;;11.47;;
5085;SDS011;4715;51.660;7.082;2022-12-18T03:56:13;20.80;;;10.93;;
5085;SDS011;4715;51.660;7.082;2022-12-18T03:58:37;27.47;;;12.07;;
5085;SDS011;4715;51.660;7.082;2022-12-18T04:01:02;23.90;;;11.50;;
5085;SDS011;4715;51.660;7.082;2022-12-18T04:03:27;22.53;;;12.23;;
5085;SDS011;4715;51.660;7.082;2022-12-18T04:05:51;20.13;;;11.40;;
5085;SDS011;4715;51.660;7.082;2022-12-18T04:08:16;23.87;;;12.17;;
5085;SDS011;4715;51.660;7.082;2022-12-18T04:10:39;22.77;;;13.23;;
5085;SDS011;4715;51.660;7.082;2022-12-18T04:13:00;25.20;;;13.13;;
5085;SDS011;4715;51.660;7.082;2022-12-18T04:15:23;24.43;;;13.17;;
5085;SDS011;4715;51.660;7.082;2022-12-18T04:17:47;25.90;;;13.53;;
5085;SDS011;4715;51.660;7.082;2022-12-18T04:20:10;21.30;;;11.93;;
5085;SDS011;4715;51.660;7.082;2022-12-18T04:22:32;19.43;;;11.17;;
5085;SDS011;4715;51.660;7.082;2022-12-18T04:24:55;24.50;;;11.17;;
5085;SDS011;4715;51.660;7.082;2022-12-18T04:27:17;21.93;;;12.20;;
5085;SDS011;4715;51.660;7.082;2022-12-18T04:29:39;19.73;;;11.63;;
5085;SDS011;4715;51.660;7.082;2022-12-18T04:32:01;28.77;;;14.00;;
5085;SDS011;4715;51.660;7.082;2022-12-18T04:34:23;24.33;;;12.47;;
5085;SDS011;4715;51.660;7.082;2022-12-18T04:36:44;22.10;;;13.63;;
5085;SDS011;4715;51.660;7.082;2022-12-18T04:39:06;29.40;;;15.60;;
5085;SDS011;4715;51.660;7.082;2022-12-18T04:41:30;26.97;;;15.70;;
5085;SDS011;4715;51.660;7.082;2022-12-18T04:43:51;26.00;;;13.17;;
5085;SDS011;4715;51.660;7.082;2022-12-18T04:46:13;27.13;;;14.50;;
5085;SDS011;4715;51.660;7.082;2022-12-18T04:48:35;25.40;;;14.70;;
5085;SDS011;4715;51.660;7.082;2022-12-18T04:50:58;28.53;;;15.00;;
5085;SDS011;4715;51.660;7.082;2022-12-18T04:53:19;27.50;;;15.00;;
5085;SDS011;4715;51.660;7.082;2022-12-18T04:55:41;29.50;;;14.20;;
5085;SDS011;4715;51.660;7.082;2022-12-18T04:58:04;22.07;;;12.30;;
5085;SDS011;4715;51.660;7.082;2022-12-18T05:00:26;24.37;;;14.30;;
5085;SDS011;4715;51.660;7.082;2022-12-18T05:02:48;29.60;;;15.20;;
5085;SDS011;4715;51.660;7.082;2022-12-18T05:05:10;28.73;;;16.07;;
5085;SDS011;4715;51.660;7.082;2022-12-18T05:07:32;25.63;;;14.43;;
5085;SDS011;4715;51.660;7.082;2022-12-18T05:09:54;23.37;;;14.13;;
5085;SDS011;4715;51.660;7.082;2022-12-18T05:12:16;26.87;;;16.13;;
5085;SDS011;4715;51.660;7.082;2022-12-18T05:14:39;18.83;;;12.30;;
5085;SDS011;4715;51.660;7.082;2022-12-18T05:17:01;24.77;;;12.97;;
5085;SDS011;4715;51.660;7.082;2022-12-18T05:19:22;22.70;;;13.30;;
5085;SDS011;4715;51.660;7.082;2022-12-18T05:21:44;20.43;;;12.57;;
5085;SDS011;4715;51.660;7.082;2022-12-18T05:24:06;21.90;;;12.10;;
5085;SDS011;4715;51.660;7.082;2022-12-18T05:26:28;24.70;;;12.17;;
5085;SDS011;4715;51.660;7.082;2022-12-18T05:28:50;19.43;;;10.13;;
5085;SDS011;4715;51.660;7.082;2022-12-18T05:31:13;24.00;;;12.50;;
5085;SDS011;4715;51.660;7.082;2022-12-18T05:33:35;22.83;;;11.70;;
5085;SDS011;4715;51.660;7.082;2022-12-18T05:35:58;16.00;;;10.53;;
5085;SDS011;4715;51.660;7.082;2022-12-18T05:38:24;19.80;;;10.13;;
5085;SDS011;4715;51.660;7.082;2022-12-18T05:40:47;15.30;;;9.20;;
5085;SDS011;4715;51.660;7.082;2022-12-18T05:43:09;16.80;;;9.90;;
5085;SDS011;4715;51.660;7.082;2022-12-18T05:45:31;14.47;;;9.37;;
5085;SDS011;4715;51.660;7.082;2022-12-18T05:47:54;13.37;;;9.43;;
5085;SDS011;4715;51.660;7.082;2022-12-18T05:50:17;19.97;;;10.70;;
5085;SDS011;4715;51.660;7.082;2022-12-18T05:52:38;15.83;;;9.10;;
5085;SDS011;4715;51.660;7.082;2022-12-18T05:55:00;17.43;;;10.37;;
5085;SDS011;4715;51.660;7.082;2022-12-18T05:57:24;22.03;;;9.47;;
5085;SDS011;4715;51.660;7.082;2022-12-18T05:59:46;18.03;;;10.43;;
5085;SDS011;4715;51.660;7.082;2022-12-18T06:02:11;23.97;;;10.67;;
5085;SDS011;4715;51.660;7.082;2022-12-18T06:04:35;16.27;;;9.90;;
5085;SDS011;4715;51.660;7.082;2022-12-18T06:06:57;17.30;;;9.90;;
5085;SDS011;4715;51.660;7.082;2022-12-18T06:09:19;18.73;;;11.10;;
5085;SDS011;4715;51.660;7.082;2022-12-18T06:11:41;19.33;;;10.57;;
5085;SDS011;4715;51.660;7.082;2022-12-18T06:14:03;16.37;;;10.70;;
5085;SDS011;4715;51.660;7.082;2022-12-18T06:16:26;21.57;;;11.70;;
5085;SDS011;4715;51.660;7.082;2022-12-18T06:18:50;18.57;;;11.20;;
5085;SDS011;4715;51.660;7.082;2022-12-18T06:21:14;16.77;;;9.00;;
5085;SDS011;4715;51.660;7.082;2022-12-18T06:23:37;19.30;;;9.60;;
5085;SDS011;4715;51.660;7.082;2022-12-18T06:26:03;14.87;;;8.57;;
5085;SDS011;4715;51.660;7.082;2022-12-18T06:28:26;17.80;;;10.33;;
5085;SDS011;4715;51.660;7.082;2022-12-18T06:30:48;16.03;;;9.70;;
5085;SDS011;4715;51.660;7.082;2022-12-18T06:33:10;14.37;;;10.37;;
5085;SDS011;4715;51.660;7.082;2022-12-18T06:35:32;15.00;;;9.97;;
5085;SDS011;4715;51.660;7.082;2022-12-18T06:37:57;24.30;;;10.43;;
5085;SDS011;4715;51.660;7.082;2022-12-18T06:40:19;21.43;;;11.70;;
5085;SDS011;4715;51.660;7.082;2022-12-18T06:42:41;18.43;;;10.33;;
5085;SDS011;4715;51.660;7.082;2022-12-18T06:45:03;17.80;;;10.40;;
5085;SDS011;4715;51.660;7.082;2022-12-18T06:47:26;18.97;;;12.10;;
5085;SDS011;4715;51.660;7.082;2022-12-18T06:49:48;17.60;;;9.90;;
5085;SDS011;4715;51.660;7.082;2022-12-18T06:52:09;17.13;;;10.03;;
5085;SDS011;4715;51.660;7.082;2022-12-18T06:54:33;20.27;;;12.27;;
5085;SDS011;4715;51.660;7.082;2022-12-18T06:56:57;15.17;;;10.10;;
5085;SDS011;4715;51.660;7.082;2022-12-18T06:59:19;19.23;;;10.50;;
5085;SDS011;4715;51.660;7.082;2022-12-18T07:01:41;18.20;;;9.70;;
5085;SDS011;4715;51.660;7.082;2022-12-18T07:04:06;14.00;;;9.00;;
5085;SDS011;4715;51.660;7.082;2022-12-18T07:06:28;16.67;;;10.67;;
5085;SDS011;4715;51.660;7.082;2022-12-18T07:08:50;19.83;;;10.40;;
5085;SDS011;4715;51.660;7.082;2022-12-18T07:11:14;13.73;;;10.33;;
5085;SDS011;4715;51.660;7.082;2022-12-18T07:13:37;18.50;;;9.53;;
5085;SDS011;4715;51.660;7.082;2022-12-18T07:16:06;25.03;;;12.17;;
5085;SDS011;4715;51.660;7.082;2022-12-18T07:18:30;20.20;;;11.10;;
5085;SDS011;4715;51.660;7.082;2022-12-18T07:20:52;21.30;;;11.57;;
5085;SDS011;4715;51.660;7.082;2022-12-18T07:23:14;21.17;;;11.50;;
5085;SDS011;4715;51.660;7.082;2022-12-18T07:25:38;21.83;;;11.00;;
5085;SDS011;4715;51.660;7.082;2022-12-18T07:28:01;19.97;;;11.60;;
5085;SDS011;4715;51.660;7.082;2022-12-18T07:30:24;23.10;;;11.40;;
5085;SDS011;4715;51.660;7.082;2022-12-18T07:32:45;24.27;;;13.53;;
5085;SDS011;4715;51.660;7.082;2022-12-18T07:35:07;21.67;;;12.57;;
5085;SDS011;4715;51.660;7.082;2022-12-18T07:37:30;20.07;;;12.07;;
5085;SDS011;4715;51.660;7.082;2022-12-18T07:39:52;25.60;;;12.70;;
5085;SDS011;4715;51.660;7.082;2022-12-18T07:42:14;29.97;;;13.43;;
5085;SDS011;4715;51.660;7.082;2022-12-18T07:44:56;22.00;;;12.83;;
5085;SDS011;4715;51.660;7.082;2022-12-18T07:47:20;27.50;;;13.47;;
5085;SDS011;4715;51.660;7.082;2022-12-18T07:53:28;21.53;;;11.90;;
5085;SDS011;4715;51.660;7.082;2022-12-18T07:56:08;17.80;;;10.83;;
5085;SDS011;4715;51.660;7.082;2022-12-18T07:58:41;23.67;;;12.77;;
5085;SDS011;4715;51.660;7.082;2022-12-18T08:01:56;25.23;;;13.77;;
5085;SDS011;4715;51.660;7.082;2022-12-18T08:04:18;24.00;;;13.10;;
5085;SDS011;4715;51.660;7.082;2022-12-18T08:06:41;21.70;;;12.73;;
5085;SDS011;4715;51.660;7.082;2022-12-18T08:09:02;24.43;;;12.80;;
5085;SDS011;4715;51.660;7.082;2022-12-18T08:11:25;24.37;;;12.70;;
5085;SDS011;4715;51.660;7.082;2022-12-18T08:13:48;27.03;;;13.20;;
5085;SDS011;4715;51.660;7.082;2022-12-18T08:16:11;25.20;;;12.63;;
5085;SDS011;4715;51.660;7.082;2022-12-18T08:18:34;23.53;;;13.33;;
5085;SDS011;4715;51.660;7.082;2022-12-18T08:20:57;22.43;;;12.80;;
5085;SDS011;4715;51.660;7.082;2022-12-18T08:23:52;20.13;;;10.40;;
5085;SDS011;4715;51.660;7.082;2022-12-18T08:26:44;19.80;;;12.60;;
5085;SDS011;4715;51.660;7.082;2022-12-18T08:29:25;21.17;;;12.50;;
5085;SDS011;4715;51.660;7.082;2022-12-18T08:31:48;22.50;;;13.30;;
5085;SDS011;4715;51.660;7.082;2022-12-18T08:34:13;19.43;;;11.67;;
5085;SDS011;4715;51.660;7.082;2022-12-18T08:36:36;18.47;;;11.53;;
5085;SDS011;4715;51.660;7.082;2022-12-18T08:38:58;22.87;;;13.60;;
5085;SDS011;4715;51.660;7.082;2022-12-18T08:41:21;24.30;;;14.60;;
5085;SDS011;4715;51.660;7.082;2022-12-18T08:43:44;21.97;;;11.97;;
5085;SDS011;4715;51.660;7.082;2022-12-18T08:46:26;24.20;;;13.17;;
5085;SDS011;4715;51.660;7.082;2022-12-18T08:48:59;24.03;;;14.47;;
5085;SDS011;4715;51.660;7.082;2022-12-18T08:51:23;23.23;;;13.90;;
5085;SDS011;4715;51.660;7.082;2022-12-18T08:53:46;25.80;;;14.07;;
5085;SDS011;4715;51.660;7.082;2022-12-18T08:56:11;23.50;;;14.27;;
5085;SDS011;4715;51.660;7.082;2022-12-18T08:58:34;19.60;;;12.97;;
5085;SDS011;4715;51.660;7.082;2022-12-18T09:03:27;21.30;;;12.97;;
5085;SDS011;4715;51.660;7.082;2022-12-18T09:05:49;20.80;;;13.80;;
5085;SDS011;4715;51.660;7.082;2022-12-18T09:08:13;24.00;;;12.37;;
5085;SDS011;4715;51.660;7.082;2022-12-18T09:10:40;18.50;;;11.80;;
5085;SDS011;4715;51.660;7.082;2022-12-18T09:13:03;21.07;;;13.60;;
5085;SDS011;4715;51.660;7.082;2022-12-18T09:15:26;16.73;;;10.93;;
5085;SDS011;4715;51.660;7.082;2022-12-18T09:17:48;17.70;;;12.47;;
5085;SDS011;4715;51.660;7.082;2022-12-18T09:20:15;18.63;;;11.20;;
5085;SDS011;4715;51.660;7.082;2022-12-18T09:22:38;19.10;;;12.37;;
5085;SDS011;4715;51.660;7.082;2022-12-18T09:25:07;31.83;;;12.23;;
5085;SDS011;4715;51.660;7.082;2022-12-18T09:27:30;24.10;;;13.50;;
5085;SDS011;4715;51.660;7.082;2022-12-18T09:29:55;16.33;;;11.03;;
5085;SDS011;4715;51.660;7.082;2022-12-18T09:32:20;19.93;;;11.10;;
5085;SDS011;4715;51.660;7.082;2022-12-18T09:34:42;23.17;;;11.80;;
5085;SDS011;4715;51.660;7.082;2022-12-18T09:37:05;18.90;;;11.77;;
5085;SDS011;4715;51.660;7.082;2022-12-18T09:39:28;16.63;;;11.43;;
5085;SDS011;4715;51.660;7.082;2022-12-18T09:41:52;20.40;;;11.40;;
5085;SDS011;4715;51.660;7.082;2022-12-18T09:44:18;23.40;;;12.50;;
5085;SDS011;4715;51.660;7.082;2022-12-18T09:46:48;16.73;;;11.67;;
5085;SDS011;4715;51.660;7.082;2022-12-18T09:54:16;17.37;;;11.90;;
5085;SDS011;4715;51.660;7.082;2022-12-18T09:56:43;17.13;;;10.90;;
5085;SDS011;4715;51.660;7.082;2022-12-18T09:59:13;14.70;;;9.83;;
5085;SDS011;4715;51.660;7.082;2022-12-18T10:04:08;14.20;;;9.23;;
5085;SDS011;4715;51.660;7.082;2022-12-18T10:06:32;13.17;;;9.80;;
5085;SDS011;4715;51.660;7.082;2022-12-18T10:08:59;20.53;;;13.07;;
5085;SDS011;4715;51.660;7.082;2022-12-18T10:29:04;24.43;;;14.30;;
5085;SDS011;4715;51.660;7.082;2022-12-18T10:31:37;25.07;;;13.90;;
5085;SDS011;4715;51.660;7.082;2022-12-18T10:38:55;20.93;;;13.43;;
5085;SDS011;4715;51.660;7.082;2022-12-18T10:44:16;22.40;;;15.00;;
5085;SDS011;4715;51.660;7.082;2022-12-18T10:46:40;28.93;;;16.60;;
5085;SDS011;4715;51.660;7.082;2022-12-18T10:49:03;21.20;;;13.43;;
5085;SDS011;4715;51.660;7.082;2022-12-18T10:51:27;19.03;;;12.80;;
5085;SDS011;4715;51.660;7.082;2022-12-18T10:53:51;18.07;;;12.53;;
5085;SDS011;4715;51.660;7.082;2022-12-18T10:56:18;20.27;;;13.37;;
5085;SDS011;4715;51.660;7.082;2022-12-18T10:58:41;15.47;;;10.40;;
5085;SDS011;4715;51.660;7.082;2022-12-18T11:01:10;21.13;;;11.57;;
5085;SDS011;4715;51.660;7.082;2022-12-18T11:03:33;17.20;;;12.33;;
5085;SDS011;4715;51.660;7.082;2022-12-18T11:06:07;22.83;;;12.83;;
5085;SDS011;4715;51.660;7.082;2022-12-18T11:08:30;20.80;;;12.97;;
5085;SDS011;4715;51.660;7.082;2022-12-18T11:10:53;13.17;;;10.50;;
5085;SDS011;4715;51.660;7.082;2022-12-18T11:13:18;14.60;;;10.60;;
5085;SDS011;4715;51.660;7.082;2022-12-18T11:15:42;15.03;;;10.83;;
5085;SDS011;4715;51.660;7.082;2022-12-18T11:18:15;19.00;;;10.20;;
5085;SDS011;4715;51.660;7.082;2022-12-18T11:20:40;19.17;;;9.60;;
5085;SDS011;4715;51.660;7.082;2022-12-18T11:23:03;11.50;;;8.33;;
5085;SDS011;4715;51.660;7.082;2022-12-18T11:25:30;14.13;;;9.53;;
5085;SDS011;4715;51.660;7.082;2022-12-18T11:27:54;15.20;;;11.00;;
5085;SDS011;4715;51.660;7.082;2022-12-18T11:30:22;9.00;;;6.67;;
5085;SDS011;4715;51.660;7.082;2022-12-18T11:32:46;9.37;;;7.50;;
5085;SDS011;4715;51.660;7.082;2022-12-18T11:35:15;8.50;;;7.63;;
5085;SDS011;4715;51.660;7.082;2022-12-18T11:37:41;12.83;;;7.97;;
5085;SDS011;4715;51.660;7.082;2022-12-18T11:40:09;11.10;;;7.30;;
5085;SDS011;4715;51.660;7.082;2022-12-18T11:42:35;14.50;;;7.20;;
5085;SDS011;4715;51.660;7.082;2022-12-18T11:45:01;12.70;;;8.00;;
5085;SDS011;4715;51.660;7.082;2022-12-18T11:47:37;12.63;;;8.43;;
5085;SDS011;4715;51.660;7.082;2022-12-18T11:50:10;12.13;;;8.70;;
5085;SDS011;4715;51.660;7.082;2022-12-18T11:52:38;9.43;;;7.17;;
5085;SDS011;4715;51.660;7.082;2022-12-18T11:55:05;12.80;;;7.73;;
5085;SDS011;4715;51.660;7.082;2022-12-18T11:57:34;12.20;;;8.20;;
5085;SDS011;4715;51.660;7.082;2022-12-18T12:00:07;12.67;;;8.13;;
5085;SDS011;4715;51.660;7.082;2022-12-18T12:02:40;12.40;;;7.90;;
5085;SDS011;4715;51.660;7.082;2022-12-18T12:05:21;11.80;;;7.57;;
5085;SDS011;4715;51.660;7.082;2022-12-18T12:07:55;9.07;;;6.87;;
5085;SDS011;4715;51.660;7.082;2022-12-18T12:10:33;8.30;;;6.47;;
5085;SDS011;4715;51.660;7.082;2022-12-18T12:13:07;9.73;;;7.10;;
5085;SDS011;4715;51.660;7.082;2022-12-18T12:15:40;10.07;;;7.10;;
5085;SDS011;4715;51.660;7.082;2022-12-18T12:18:08;10.60;;;6.03;;
5085;SDS011;4715;51.660;7.082;2022-12-18T12:20:44;7.47;;;6.23;;
5085;SDS011;4715;51.660;7.082;2022-12-18T12:23:16;9.83;;;6.70;;
5085;SDS011;4715;51.660;7.082;2022-12-18T12:25:47;5.73;;;5.23;;
5085;SDS011;4715;51.660;7.082;2022-12-18T12:28:15;6.37;;;5.20;;
5085;SDS011;4715;51.660;7.082;2022-12-18T12:30:58;6.63;;;5.33;;
5085;SDS011;4715;51.660;7.082;2022-12-18T12:33:32;8.47;;;5.57;;
5085;SDS011;4715;51.660;7.082;2022-12-18T12:36:04;5.43;;;4.40;;
5085;SDS011;4715;51.660;7.082;2022-12-18T12:38:35;9.17;;;5.00;;
5085;SDS011;4715;51.660;7.082;2022-12-18T12:41:04;7.60;;;5.23;;
5085;SDS011;4715;51.660;7.082;2022-12-18T12:43:49;6.50;;;4.43;;
5085;SDS011;4715;51.660;7.082;2022-12-18T12:46:12;6.57;;;5.00;;
5085;SDS011;4715;51.660;7.082;2022-12-18T12:48:43;6.53;;;5.73;;
5085;SDS011;4715;51.660;7.082;2022-12-18T12:51:12;6.77;;;5.20;;
5085;SDS011;4715;51.660;7.082;2022-12-18T12:53:37;6.03;;;4.90;;
5085;SDS011;4715;51.660;7.082;2022-12-18T12:56:01;8.13;;;4.30;;
5085;SDS011;4715;51.660;7.082;2022-12-18T12:58:28;7.30;;;5.40;;
5085;SDS011;4715;51.660;7.082;2022-12-18T13:01:01;7.13;;;5.40;;
5085;SDS011;4715;51.660;7.082;2022-12-18T13:03:34;5.40;;;4.50;;
5085;SDS011;4715;51.660;7.082;2022-12-18T13:06:04;4.10;;;3.77;;
5085;SDS011;4715;51.660;7.082;2022-12-18T13:08:50;5.40;;;4.47;;
5085;SDS011;4715;51.660;7.082;2022-12-18T13:11:21;6.63;;;4.60;;
5085;SDS011;4715;51.660;7.082;2022-12-18T13:14:10;6.30;;;5.10;;
5085;SDS011;4715;51.660;7.082;2022-12-18T13:16:43;4.23;;;3.93;;
5085;SDS011;4715;51.660;7.082;2022-12-18T13:19:18;5.60;;;5.10;;
5085;SDS011;4715;51.660;7.082;2022-12-18T13:21:51;8.03;;;5.33;;
5085;SDS011;4715;51.660;7.082;2022-12-18T13:24:21;6.80;;;5.00;;
5085;SDS011;4715;51.660;7.082;2022-12-18T13:26:46;7.50;;;5.20;;
5085;SDS011;4715;51.660;7.082;2022-12-18T13:29:08;5.57;;;5.00;;
5085;SDS011;4715;51.660;7.082;2022-12-18T13:34:28;4.87;;;4.37;;
5085;SDS011;4715;51.660;7.082;2022-12-18T13:36:52;6.60;;;5.53;;
5085;SDS011;4715;51.660;7.082;2022-12-18T13:48:00;6.67;;;5.03;;
5085;SDS011;4715;51.660;7.082;2022-12-18T13:50:25;9.07;;;5.67;;
5085;SDS011;4715;51.660;7.082;2022-12-18T13:52:47;7.53;;;5.40;;
5085;SDS011;4715;51.660;7.082;2022-12-18T13:55:15;7.47;;;6.37;;
5085;SDS011;4715;51.660;7.082;2022-12-18T13:57:39;7.40;;;5.63;;
5085;SDS011;4715;51.660;7.082;2022-12-18T14:00:17;7.17;;;5.60;;
5085;SDS011;4715;51.660;7.082;2022-12-18T14:02:46;8.80;;;5.27;;
5085;SDS011;4715;51.660;7.082;2022-12-18T14:05:20;12.17;;;6.53;;
5085;SDS011;4715;51.660;7.082;2022-12-18T14:07:46;11.77;;;5.83;;
5085;SDS011;4715;51.660;7.082;2022-12-18T14:10:11;8.87;;;6.73;;
5085;SDS011;4715;51.660;7.082;2022-12-18T14:12:37;10.17;;;6.97;;
5085;SDS011;4715;51.660;7.082;2022-12-18T14:15:20;11.07;;;7.77;;
5085;SDS011;4715;51.660;7.082;2022-12-18T14:17:48;10.23;;;7.33;;
5085;SDS011;4715;51.660;7.082;2022-12-18T14:20:12;8.80;;;5.40;;
5085;SDS011;4715;51.660;7.082;2022-12-18T14:22:36;8.33;;;5.73;;
5085;SDS011;4715;51.660;7.082;2022-12-18T14:25:08;8.17;;;5.60;;
5085;SDS011;4715;51.660;7.082;2022-12-18T14:27:41;8.40;;;5.70;;
5085;SDS011;4715;51.660;7.082;2022-12-18T14:30:15;6.20;;;4.83;;
5085;SDS011;4715;51.660;7.082;2022-12-18T14:32:58;7.00;;;6.00;;
5085;SDS011;4715;51.660;7.082;2022-12-18T14:35:21;9.00;;;6.30;;
5085;SDS011;4715;51.660;7.082;2022-12-18T14:37:43;5.67;;;5.10;;
5085;SDS011;4715;51.660;7.082;2022-12-18T14:40:11;6.57;;;5.60;;
5085;SDS011;4715;51.660;7.082;2022-12-18T14:42:36;6.57;;;5.40;;
5085;SDS011;4715;51.660;7.082;2022-12-18T14:47:56;5.10;;;4.67;;
5085;SDS011;4715;51.660;7.082;2022-12-18T14:50:18;7.47;;;6.70;;
5085;SDS011;4715;51.660;7.082;2022-12-18T14:52:39;5.90;;;5.30;;
5085;SDS011;4715;51.660;7.082;2022-12-18T14:55:03;11.23;;;5.77;;
5085;SDS011;4715;51.660;7.082;2022-12-18T14:57:35;4.80;;;4.03;;
5085;SDS011;4715;51.660;7.082;2022-12-18T15:00:05;5.53;;;4.83;;
5085;SDS011;4715;51.660;7.082;2022-12-18T15:02:29;6.07;;;4.73;;
5085;SDS011;4715;51.660;7.082;2022-12-18T15:04:59;6.93;;;5.80;;
5085;SDS011;4715;51.660;7.082;2022-12-18T15:07:23;6.60;;;5.30;;
5085;SDS011;4715;51.660;7.082;2022-12-18T15:10:00;6.77;;;5.60;;
5085;SDS011;4715;51.660;7.082;2022-12-18T15:12:33;10.77;;;6.60;;
5085;SDS011;4715;51.660;7.082;2022-12-18T15:14:59;11.10;;;7.37;;
5085;SDS011;4715;51.660;7.082;2022-12-18T15:17:21;11.60;;;6.60;;
5085;SDS011;4715;51.660;7.082;2022-12-18T15:19:44;7.40;;;6.40;;
5085;SDS011;4715;51.660;7.082;2022-12-18T15:24:52;9.00;;;5.77;;
5085;SDS011;4715;51.660;7.082;2022-12-18T15:27:22;10.47;;;6.87;;
5085;SDS011;4715;51.660;7.082;2022-12-18T15:30:00;10.83;;;6.57;;
5085;SDS011;4715;51.660;7.082;2022-12-18T15:32:23;11.10;;;6.50;;
5085;SDS011;4715;51.660;7.082;2022-12-18T15:34:45;12.50;;;7.30;;
5085;SDS011;4715;51.660;7.082;2022-12-18T15:37:07;7.67;;;6.17;;
5085;SDS011;4715;51.660;7.082;2022-12-18T15:39:29;13.93;;;8.20;;
5085;SDS011;4715;51.660;7.082;2022-12-18T15:41:53;10.13;;;6.97;;
5085;SDS011;4715;51.660;7.082;2022-12-18T15:44:41;10.20;;;6.87;;